Time;durP1;ratioP1;P1;durP2;ratioP2;P2;SDS_P1;SDS_P2;PMS_P1;PMS_P2;Temp;Humidity;BMP_temperature;BMP_pressure;BME280_temperature;BME280_humidity;BME280_pressure;Samples;Min_cycle;Max_cycle;Signal;HPM_P1;HPM_P2
2024/01/30 00:02:17;;;;;;;43.90;21.17;;;5.60;99.90;;;;;;5056205;28;20071;-91
2024/01/30 00:04:42;;;;;;;40.72;22.42;;;5.70;99.90;;;;;;5073840;28;20067;-91
2024/01/30 00:07:08;;;;;;;39.22;22.88;;;5.60;99.90;;;;;;5056305;28;20048;-93
2024/01/30 00:09:34;;;;;;;45.50;24.02;;;5.60;99.90;;;;;;5056171;28;20052;-93
2024/01/30 00:12:00;;;;;;;36.55;23.52;;;5.70;99.90;;;;;;5074131;28;20441;-90
2024/01/30 00:14:25;;;;;;;43.10;25.13;;;5.60;99.90;;;;;;5076429;28;20056;-91
2024/01/30 00:16:51;;;;;;;42.15;22.63;;;5.60;99.90;;;;;;5073770;28;20052;-89
2024/01/30 00:19:17;;;;;;;35.10;22.40;;;5.60;99.90;;;;;;5073781;28;20076;-92
2024/01/30 00:21:43;;;;;;;37.75;22.45;;;5.60;99.90;;;;;;5073881;28;20056;-93
2024/01/30 00:24:09;;;;;;;36.78;22.05;;;5.60;99.90;;;;;;5074315;28;20400;-88
2024/01/30 00:26:35;;;;;;;40.60;22.60;;;5.60;99.90;;;;;;5073197;28;20067;-92
2024/01/30 00:29:00;;;;;;;39.47;23.23;;;5.60;99.90;;;;;;5073587;28;20362;-92
2024/01/30 00:31:26;;;;;;;37.67;22.60;;;5.60;99.90;;;;;;5073856;28;20049;-89
2024/01/30 00:33:52;;;;;;;42.17;24.40;;;5.70;99.90;;;;;;5073554;28;20408;-83
2024/01/30 00:36:18;;;;;;;40.65;23.40;;;5.60;99.90;;;;;;5055616;28;20048;-79
2024/01/30 00:38:43;;;;;;;42.45;24.25;;;5.70;99.90;;;;;;5075772;28;20476;-78
2024/01/30 00:41:09;;;;;;;39.50;23.00;;;5.60;99.90;;;;;;5073104;28;20443;-77
2024/01/30 00:43:35;;;;;;;44.50;24.52;;;5.60;99.90;;;;;;5072652;28;20052;-76
2024/01/30 00:46:01;;;;;;;48.78;24.75;;;5.60;99.90;;;;;;5072592;28;20146;-78
2024/01/30 00:48:27;;;;;;;40.95;23.33;;;5.60;99.90;;;;;;5037796;28;20598;-77
2024/01/30 00:50:53;;;;;;;46.50;24.52;;;5.60;99.90;;;;;;5072565;28;20439;-76
2024/01/30 00:53:18;;;;;;;42.40;23.48;;;5.60;99.90;;;;;;5072196;28;20036;-79
2024/01/30 00:55:44;;;;;;;40.97;24.23;;;5.60;99.90;;;;;;5072542;28;20078;-77
2024/01/30 00:58:10;;;;;;;41.53;24.35;;;5.60;99.90;;;;;;5054171;28;20118;-79
2024/01/30 01:00:35;;;;;;;46.70;25.20;;;5.60;99.90;;;;;;5072403;28;20051;-81
2024/01/30 01:03:02;;;;;;;45.22;24.58;;;5.60;99.90;;;;;;5072414;28;20049;-83
2024/01/30 01:05:27;;;;;;;44.50;26.13;;;5.60;99.90;;;;;;5054875;28;20492;-93
2024/01/30 01:07:53;;;;;;;44.67;25.67;;;5.60;99.90;;;;;;5077530;28;20048;-86
2024/01/30 01:10:19;;;;;;;43.03;25.52;;;5.60;99.90;;;;;;5055412;28;20057;-78
2024/01/30 01:12:45;;;;;;;41.05;24.27;;;5.60;99.90;;;;;;5054521;28;20408;-78
2024/01/30 01:15:12;;;;;;;42.63;24.15;;;5.60;99.90;;;;;;5072155;28;20044;-80
2024/01/30 01:17:38;;;;;;;43.55;24.98;;;5.50;99.90;;;;;;5072017;28;20175;-84
2024/01/30 01:20:06;;;;;;;46.00;25.60;;;5.50;99.90;;;;;;5071966;28;20445;-79
2024/01/30 01:22:32;;;;;;;44.05;27.10;;;5.50;99.90;;;;;;5053908;28;20389;-78
2024/01/30 01:24:58;;;;;;;42.22;25.88;;;5.50;99.90;;;;;;5072180;28;20060;-78
2024/01/30 01:27:24;;;;;;;46.67;25.42;;;5.50;99.90;;;;;;5072149;28;20499;-81
2024/01/30 01:29:51;;;;;;;47.78;26.50;;;5.50;99.90;;;;;;5072558;28;20312;-89
2024/01/30 01:32:16;;;;;;;44.13;26.48;;;5.50;99.90;;;;;;5073342;28;20059;-87
2024/01/30 01:34:42;;;;;;;45.90;26.75;;;5.50;99.90;;;;;;5074314;28;20048;-81
2024/01/30 01:37:08;;;;;;;45.65;26.23;;;5.50;99.90;;;;;;5054027;28;20135;-88
2024/01/30 01:39:33;;;;;;;42.22;25.40;;;5.50;99.90;;;;;;5037290;28;20155;-87
2024/01/30 01:41:59;;;;;;;39.95;25.30;;;5.50;99.90;;;;;;5054375;28;20133;-77
2024/01/30 01:44:25;;;;;;;43.72;25.75;;;5.40;99.90;;;;;;5054739;28;20052;-85
2024/01/30 01:46:52;;;;;;;50.10;27.48;;;5.40;99.90;;;;;;5072653;28;20040;-85
2024/01/30 01:49:19;;;;;;;47.95;28.00;;;5.40;99.90;;;;;;5072008;28;20135;-80
2024/01/30 01:51:47;;;;;;;47.33;26.65;;;5.40;99.90;;;;;;5072207;28;20040;-82
2024/01/30 01:54:14;;;;;;;45.63;26.27;;;5.40;99.90;;;;;;5072629;28;20099;-94
2024/01/30 01:56:40;;;;;;;42.30;25.25;;;5.50;99.90;;;;;;5072802;28;20549;-93
2024/01/30 01:59:08;;;;;;;47.08;27.42;;;5.50;99.90;;;;;;5060579;28;20060;-78
2024/01/30 02:01:34;;;;;;;45.58;25.67;;;5.50;99.90;;;;;;5053791;28;20135;-78
2024/01/30 02:04:00;;;;;;;45.95;27.00;;;5.50;99.90;;;;;;5071428;28;20083;-77
2024/01/30 02:06:27;;;;;;;47.83;26.55;;;5.50;99.90;;;;;;5054122;28;20056;-81
2024/01/30 02:08:53;;;;;;;52.95;26.98;;;5.50;99.90;;;;;;5073189;28;20033;-89
2024/01/30 02:11:20;;;;;;;46.35;26.75;;;5.50;99.90;;;;;;5090916;28;20102;-80
2024/01/30 02:13:46;;;;;;;46.60;25.88;;;5.60;99.90;;;;;;5076459;28;20074;-77
2024/01/30 02:16:12;;;;;;;46.65;26.27;;;5.60;99.90;;;;;;5059459;28;20430;-77
2024/01/30 02:18:41;;;;;;;44.72;26.05;;;5.60;99.90;;;;;;5076819;28;20144;-76
2024/01/30 02:21:08;;;;;;;48.00;27.55;;;5.60;99.90;;;;;;5086267;28;20052;-81
2024/01/30 02:23:34;;;;;;;44.65;25.80;;;5.60;99.90;;;;;;5085790;28;20048;-86
2024/01/30 02:26:00;;;;;;;45.97;26.50;;;5.60;99.90;;;;;;5075322;28;20118;-83
2024/01/30 02:28:27;;;;;;;47.65;27.45;;;5.60;99.90;;;;;;5072475;28;20131;-80
2024/01/30 02:30:53;;;;;;;46.65;26.85;;;5.60;99.90;;;;;;5053846;28;20053;-87
2024/01/30 02:33:19;;;;;;;47.25;27.25;;;5.60;99.90;;;;;;5071529;28;20060;-90
2024/01/30 02:35:45;;;;;;;44.85;24.70;;;5.70;99.90;;;;;;5071745;28;20101;-91
2024/01/30 02:38:10;;;;;;;48.67;26.30;;;5.70;99.90;;;;;;5071664;28;20424;-89
2024/01/30 02:40:36;;;;;;;46.70;25.48;;;5.70;99.90;;;;;;5071884;28;20044;-90
2024/01/30 02:43:03;;;;;;;46.67;26.25;;;5.70;99.90;;;;;;5072128;28;20087;-88
2024/01/30 02:45:29;;;;;;;42.53;25.00;;;5.70;99.90;;;;;;5053794;28;20500;-85
2024/01/30 02:47:55;;;;;;;46.28;24.73;;;5.70;99.90;;;;;;5072021;28;20036;-93
2024/01/30 02:50:21;;;;;;;47.42;25.00;;;5.70;99.90;;;;;;5074067;28;20075;-90
2024/01/30 02:52:46;;;;;;;45.15;26.33;;;5.70;99.90;;;;;;5076654;28;20083;-91
2024/01/30 02:55:12;;;;;;;42.67;23.40;;;5.70;99.90;;;;;;5058802;28;20053;-85
2024/01/30 02:57:39;;;;;;;46.92;24.63;;;5.70;99.90;;;;;;5057087;28;20492;-80
2024/01/30 03:00:06;;;;;;;49.08;28.85;;;5.70;99.90;;;;;;5075525;28;20041;-89
2024/01/30 03:02:32;;;;;;;47.42;24.67;;;5.70;99.90;;;;;;5075155;28;20074;-92
2024/01/30 03:04:59;;;;;;;44.50;25.63;;;5.60;99.90;;;;;;5074666;28;20092;-87
2024/01/30 03:07:25;;;;;;;44.83;25.80;;;5.60;99.90;;;;;;5075084;28;20048;-90
2024/01/30 03:09:51;;;;;;;46.38;25.15;;;5.60;99.90;;;;;;5075353;28;20056;-92
2024/01/30 03:12:16;;;;;;;45.20;24.63;;;5.60;99.90;;;;;;5075243;28;20109;-83
2024/01/30 03:14:42;;;;;;;41.08;24.45;;;5.70;99.90;;;;;;5057409;28;20040;-87
2024/01/30 03:17:08;;;;;;;41.70;24.42;;;5.60;99.90;;;;;;5057403;28;20056;-89
2024/01/30 03:19:33;;;;;;;45.65;26.67;;;5.60;99.90;;;;;;5041998;28;20055;-93
2024/01/30 03:21:59;;;;;;;42.97;24.92;;;5.60;99.90;;;;;;5075228;28;20044;-89
2024/01/30 03:24:26;;;;;;;47.17;24.98;;;5.60;99.90;;;;;;5074761;28;20058;-83
2024/01/30 03:26:52;;;;;;;44.55;25.33;;;5.60;99.90;;;;;;5056434;28;20056;-85
2024/01/30 03:29:18;;;;;;;42.20;25.52;;;5.60;99.90;;;;;;5056501;28;20127;-83
2024/01/30 03:31:44;;;;;;;46.88;26.23;;;5.60;99.90;;;;;;5056479;28;20072;-85
2024/01/30 03:34:09;;;;;;;45.63;24.60;;;5.60;99.90;;;;;;5056841;28;20064;-89
2024/01/30 03:36:35;;;;;;;41.78;25.98;;;5.60;99.90;;;;;;5056954;28;20117;-81
2024/01/30 03:39:01;;;;;;;47.55;26.40;;;5.60;99.90;;;;;;5074631;28;20058;-77
2024/01/30 03:41:27;;;;;;;48.20;26.83;;;5.60;99.90;;;;;;5056174;28;20045;-80
2024/01/30 03:43:52;;;;;;;43.72;24.42;;;5.60;99.90;;;;;;5074983;28;20052;-90
2024/01/30 03:46:18;;;;;;;46.42;26.63;;;5.60;99.90;;;;;;5057205;28;20045;-91
2024/01/30 03:48:45;;;;;;;50.05;26.52;;;5.60;99.90;;;;;;5077078;28;20099;-94
2024/01/30 03:51:15;;;;;;;46.38;25.23;;;5.60;99.90;;;;;;5056757;28;20123;-89
2024/01/30 03:53:41;;;;;;;51.00;27.02;;;5.50;99.90;;;;;;5074297;28;20056;-93
2024/01/30 03:56:08;;;;;;;47.45;27.27;;;5.60;99.90;;;;;;5039983;28;20520;-90
2024/01/30 03:58:33;;;;;;;41.33;25.30;;;5.50;99.90;;;;;;5056747;28;20412;-86
2024/01/30 04:00:59;;;;;;;44.40;25.20;;;5.50;99.90;;;;;;5073272;28;20041;-81
2024/01/30 04:03:25;;;;;;;45.08;25.95;;;5.50;99.90;;;;;;5056367;28;20062;-83
2024/01/30 04:05:56;;;;;;;45.15;23.70;;;5.50;99.90;;;;;;5056445;28;20288;-88
2024/01/30 04:08:21;;;;;;;43.17;25.15;;;5.50;99.90;;;;;;5075499;28;20045;-91
2024/01/30 04:10:47;;;;;;;46.90;25.80;;;5.60;99.90;;;;;;5077733;28;20056;-83
2024/01/30 04:13:13;;;;;;;46.67;24.70;;;5.60;99.90;;;;;;5060467;28;20090;-86
2024/01/30 04:15:40;;;;;;;44.45;23.67;;;5.60;99.90;;;;;;5079145;28;20514;-83
2024/01/30 04:18:06;;;;;;;47.05;26.55;;;5.70;99.90;;;;;;5081826;28;20385;-92
2024/01/30 04:20:32;;;;;;;46.45;25.30;;;5.70;99.90;;;;;;5077474;28;20052;-79
2024/01/30 04:22:57;;;;;;;47.40;26.00;;;5.70;99.90;;;;;;5059791;28;20052;-83
2024/01/30 04:25:23;;;;;;;46.13;26.23;;;5.70;99.90;;;;;;5058454;28;20045;-77
2024/01/30 04:27:49;;;;;;;43.90;27.25;;;5.80;99.90;;;;;;5056997;28;20080;-78
2024/01/30 04:30:15;;;;;;;40.92;24.92;;;5.80;99.90;;;;;;5072967;28;20155;-82
2024/01/30 04:32:41;;;;;;;46.35;26.70;;;5.80;99.90;;;;;;5055162;28;20069;-90
2024/01/30 04:35:07;;;;;;;43.60;23.85;;;5.80;99.90;;;;;;5073471;28;20044;-83
2024/01/30 04:37:33;;;;;;;45.00;24.48;;;5.90;99.90;;;;;;5073395;28;20049;-77
2024/01/30 04:39:59;;;;;;;51.13;25.13;;;5.90;99.90;;;;;;5055581;28;20074;-82
2024/01/30 04:42:24;;;;;;;42.22;23.85;;;5.90;99.90;;;;;;5055567;28;20076;-83
2024/01/30 04:44:50;;;;;;;39.80;22.73;;;5.90;99.90;;;;;;5072918;28;20040;-92
2024/01/30 04:47:16;;;;;;;42.92;23.88;;;6.00;99.90;;;;;;5073041;28;20055;-87
2024/01/30 04:49:42;;;;;;;36.03;21.77;;;6.00;99.90;;;;;;5073582;28;20047;-89
2024/01/30 04:52:08;;;;;;;39.85;22.08;;;6.00;99.90;;;;;;5073515;28;20515;-79
2024/01/30 04:54:37;;;;;;;38.78;23.40;;;6.00;99.90;;;;;;5073799;28;20052;-92
2024/01/30 04:57:08;;;;;;;42.10;23.02;;;6.00;99.90;;;;;;5073607;28;20084;-90
2024/01/30 04:59:34;;;;;;;41.97;23.50;;;6.10;99.90;;;;;;5056975;28;20056;-91
2024/01/30 05:01:59;;;;;;;39.63;22.10;;;6.10;99.90;;;;;;5043059;28;20063;-84
2024/01/30 05:04:25;;;;;;;40.50;23.38;;;6.10;99.90;;;;;;5073306;28;20083;-87
2024/01/30 05:06:51;;;;;;;41.45;24.77;;;6.10;99.90;;;;;;5072605;28;20059;-87
2024/01/30 05:09:16;;;;;;;37.85;21.77;;;6.10;99.90;;;;;;5054759;28;20131;-78
2024/01/30 05:11:42;;;;;;;36.05;21.55;;;6.20;99.90;;;;;;5072574;28;20087;-80
2024/01/30 05:14:11;;;;;;;33.20;20.63;;;6.20;99.90;;;;;;5072515;28;20084;-81
2024/01/30 05:16:37;;;;;;;38.42;22.38;;;6.20;99.90;;;;;;5072619;28;20269;-81
2024/01/30 05:19:03;;;;;;;32.88;20.45;;;6.20;99.90;;;;;;5072614;28;20058;-89
2024/01/30 05:21:29;;;;;;;35.17;19.70;;;6.20;99.90;;;;;;5072568;28;20048;-90
2024/01/30 05:23:54;;;;;;;35.30;20.33;;;6.20;99.90;;;;;;5073211;28;20049;-91
2024/01/30 05:26:20;;;;;;;34.80;20.67;;;6.20;99.90;;;;;;5072533;28;20076;-84
2024/01/30 05:28:46;;;;;;;34.13;19.27;;;6.20;99.90;;;;;;5072536;28;20052;-91
2024/01/30 05:31:12;;;;;;;37.97;21.35;;;6.20;99.90;;;;;;5073126;28;20045;-91
2024/01/30 05:33:37;;;;;;;34.90;21.42;;;6.30;99.90;;;;;;5072933;28;20053;-92
2024/01/30 05:36:03;;;;;;;33.45;20.90;;;6.30;99.90;;;;;;5078456;28;20048;-93
2024/01/30 05:38:30;;;;;;;32.67;19.77;;;6.30;99.90;;;;;;5072581;28;20060;-79
2024/01/30 05:40:57;;;;;;;34.15;19.48;;;6.30;99.90;;;;;;5072275;28;20125;-83
2024/01/30 05:43:23;;;;;;;35.13;21.25;;;6.30;99.90;;;;;;5072210;28;20060;-92
2024/01/30 05:45:51;;;;;;;32.35;18.90;;;6.30;99.90;;;;;;5072858;28;20041;-88
2024/01/30 05:48:17;;;;;;;33.80;19.00;;;6.40;99.90;;;;;;5072824;28;20171;-91
2024/01/30 05:50:43;;;;;;;34.53;20.38;;;6.40;99.90;;;;;;5073150;28;20045;-88
2024/01/30 05:53:08;;;;;;;33.85;21.20;;;6.30;99.90;;;;;;5072816;28;20095;-90
2024/01/30 05:55:34;;;;;;;34.45;20.35;;;6.30;99.90;;;;;;5054906;28;20048;-93
2024/01/30 05:58:00;;;;;;;37.70;20.17;;;6.30;99.90;;;;;;5073106;28;20568;-94
2024/01/30 06:00:26;;;;;;;31.35;18.10;;;6.30;99.90;;;;;;5072072;28;20394;-89
2024/01/30 06:02:52;;;;;;;28.65;17.45;;;6.30;99.90;;;;;;5038467;28;20056;-91
2024/01/30 06:05:18;;;;;;;36.28;20.48;;;6.30;99.90;;;;;;5055551;28;20059;-93
2024/01/30 06:07:45;;;;;;;30.35;18.33;;;6.30;99.90;;;;;;5075348;28;20056;-86
2024/01/30 06:10:11;;;;;;;35.75;19.23;;;6.40;99.90;;;;;;5037899;28;20094;-90
2024/01/30 06:12:36;;;;;;;30.30;18.75;;;6.40;99.90;;;;;;5054702;28;20106;-87
2024/01/30 06:15:02;;;;;;;31.88;19.08;;;6.40;99.90;;;;;;5072459;28;20473;-82
2024/01/30 06:17:28;;;;;;;30.25;17.48;;;6.40;99.90;;;;;;5072206;28;20141;-78
2024/01/30 06:19:54;;;;;;;28.35;17.80;;;6.40;99.90;;;;;;5072129;28;20131;-82
2024/01/30 06:22:20;;;;;;;34.75;18.88;;;6.50;99.90;;;;;;5071880;28;20482;-86
2024/01/30 06:24:47;;;;;;;32.90;19.38;;;6.50;99.90;;;;;;5073420;28;20048;-90
2024/01/30 06:27:13;;;;;;;30.75;17.60;;;6.40;99.90;;;;;;5058906;28;20120;-89
2024/01/30 06:29:40;;;;;;;31.63;18.75;;;6.50;99.90;;;;;;5058477;28;20060;-90
2024/01/30 06:32:06;;;;;;;29.50;15.85;;;6.50;99.90;;;;;;5057997;28;20045;-92
2024/01/30 06:34:32;;;;;;;30.60;18.08;;;6.50;99.90;;;;;;5076369;28;20393;-90
2024/01/30 06:36:58;;;;;;;32.55;18.15;;;6.50;99.90;;;;;;5080526;28;20170;-94
2024/01/30 06:39:23;;;;;;;31.30;18.02;;;6.50;99.90;;;;;;5059837;28;20071;-83
2024/01/30 06:41:49;;;;;;;28.63;18.00;;;6.50;99.90;;;;;;5076068;28;20049;-85
2024/01/30 06:44:15;;;;;;;30.13;17.50;;;6.50;99.90;;;;;;5058483;28;20493;-84
2024/01/30 06:46:40;;;;;;;31.02;16.85;;;6.50;99.90;;;;;;5057613;28;20820;-90
2024/01/30 06:49:06;;;;;;;30.83;17.13;;;6.50;99.90;;;;;;5057557;28;20052;-84
2024/01/30 06:51:32;;;;;;;29.50;17.77;;;6.60;99.90;;;;;;5075718;28;20074;-84
2024/01/30 06:53:57;;;;;;;29.77;17.23;;;6.50;99.90;;;;;;5075253;28;20420;-86
2024/01/30 06:56:23;;;;;;;30.33;17.17;;;6.50;99.90;;;;;;5075627;28;20044;-87
2024/01/30 06:58:50;;;;;;;29.92;17.30;;;6.50;99.90;;;;;;5075751;28;20106;-93
2024/01/30 07:01:16;;;;;;;33.25;18.33;;;6.50;99.90;;;;;;5057809;28;20831;-93
2024/01/30 07:03:42;;;;;;;26.25;16.27;;;6.60;99.90;;;;;;5075316;28;20065;-84
2024/01/30 07:06:07;;;;;;;32.83;18.00;;;6.60;99.90;;;;;;5075148;28;20098;-82
2024/01/30 07:08:34;;;;;;;31.38;17.65;;;6.60;99.90;;;;;;5075532;28;20045;-93
2024/01/30 07:11:00;;;;;;;30.08;18.02;;;6.60;99.90;;;;;;5075581;28;20044;-92
2024/01/30 07:13:25;;;;;;;31.33;16.38;;;6.70;99.90;;;;;;5060685;28;20493;-87
2024/01/30 07:15:51;;;;;;;31.50;18.55;;;6.70;99.90;;;;;;5057047;28;20053;-85
2024/01/30 07:18:17;;;;;;;28.67;16.10;;;6.70;99.90;;;;;;5075226;28;20200;-87
2024/01/30 07:20:46;;;;;;;35.28;17.25;;;6.70;99.90;;;;;;5056866;28;20045;-82
2024/01/30 07:23:17;;;;;;;25.38;15.40;;;6.70;99.90;;;;;;5057157;28;20087;-86
2024/01/30 07:25:43;;;;;;;33.83;17.20;;;6.70;99.90;;;;;;5074877;28;20083;-87
2024/01/30 07:28:09;;;;;;;30.35;16.27;;;6.70;99.90;;;;;;5074822;28;20082;-90
2024/01/30 07:30:36;;;;;;;29.23;17.33;;;6.70;99.90;;;;;;5075089;28;20415;-92
2024/01/30 07:33:02;;;;;;;37.30;17.00;;;6.80;99.90;;;;;;5075148;28;20061;-93
2024/01/30 07:35:27;;;;;;;35.90;17.60;;;6.80;99.90;;;;;;5074845;28;20055;-87
2024/01/30 07:37:53;;;;;;;29.60;17.02;;;6.90;99.90;;;;;;5074777;28;20045;-91
2024/01/30 07:40:19;;;;;;;26.20;15.07;;;6.90;99.90;;;;;;5074756;28;20048;-87
2024/01/30 07:42:44;;;;;;;29.63;17.27;;;7.00;99.90;;;;;;5075902;28;20048;-91
2024/01/30 07:45:10;;;;;;;28.80;16.00;;;7.00;99.90;;;;;;5079964;28;20044;-87
2024/01/30 07:47:36;;;;;;;30.33;16.27;;;7.10;99.90;;;;;;5040637;28;20060;-80
2024/01/30 07:50:01;;;;;;;28.45;16.75;;;7.30;99.90;;;;;;5056625;28;20053;-82
2024/01/30 07:52:27;;;;;;;27.65;16.77;;;7.40;99.90;;;;;;5074559;28;20041;-86
2024/01/30 07:54:53;;;;;;;23.35;14.70;;;7.40;99.90;;;;;;5074437;28;20052;-89
2024/01/30 07:57:19;;;;;;;26.65;16.80;;;7.50;99.90;;;;;;5056507;28;20045;-88
2024/01/30 07:59:45;;;;;;;25.60;15.50;;;7.50;99.90;;;;;;5074571;28;20051;-84
2024/01/30 08:02:12;;;;;;;27.90;14.25;;;7.50;99.90;;;;;;5057319;28;20117;-90
2024/01/30 08:04:38;;;;;;;24.70;15.20;;;7.50;99.90;;;;;;5077831;28;20057;-90
2024/01/30 08:07:04;;;;;;;24.00;13.75;;;7.50;99.90;;;;;;5060562;28;20404;-84
2024/01/30 08:09:29;;;;;;;27.13;15.00;;;7.60;99.90;;;;;;5077312;28;20401;-81
2024/01/30 08:11:55;;;;;;;26.55;15.07;;;7.70;99.90;;;;;;5078114;28;20133;-90
2024/01/30 08:14:21;;;;;;;22.48;13.77;;;7.70;99.90;;;;;;5061343;28;20057;-88
2024/01/30 08:16:46;;;;;;;23.85;13.88;;;7.80;99.90;;;;;;5045047;28;20051;-92
2024/01/30 08:19:15;;;;;;;22.35;13.65;;;7.90;99.90;;;;;;5074789;28;20048;-95
2024/01/30 08:21:41;;;;;;;18.83;12.05;;;8.00;99.90;;;;;;5074677;28;20058;-91
2024/01/30 08:24:07;;;;;;;24.50;12.88;;;8.00;99.90;;;;;;5075006;28;20144;-89
2024/01/30 08:26:33;;;;;;;22.05;12.45;;;8.10;99.90;;;;;;5075073;28;20048;-94
2024/01/30 08:28:59;;;;;;;25.33;14.05;;;8.20;99.90;;;;;;5074306;28;20496;-85
2024/01/30 08:31:25;;;;;;;26.38;13.70;;;8.20;99.90;;;;;;5074129;28;20051;-78
2024/01/30 08:33:51;;;;;;;25.05;12.75;;;8.20;99.90;;;;;;5074004;28;20052;-83
2024/01/30 08:36:17;;;;;;;23.75;12.85;;;8.20;99.90;;;;;;5073916;28;20496;-85
2024/01/30 08:38:43;;;;;;;22.08;11.43;;;8.30;99.90;;;;;;5057859;28;20059;-88
2024/01/30 08:41:09;;;;;;;29.73;13.07;;;8.30;99.90;;;;;;5056476;28;20048;-85
2024/01/30 08:43:36;;;;;;;26.45;13.18;;;8.40;99.90;;;;;;5076555;28;20052;-85
2024/01/30 08:46:02;;;;;;;21.92;12.85;;;8.40;99.90;;;;;;5080430;28;20096;-87
2024/01/30 08:48:28;;;;;;;23.73;11.95;;;8.40;99.90;;;;;;5077383;28;20500;-88
2024/01/30 08:50:54;;;;;;;23.00;11.63;;;8.40;99.90;;;;;;5076591;28;20055;-89
2024/01/30 08:53:19;;;;;;;20.80;12.43;;;8.40;99.90;;;;;;5059988;28;20075;-91
2024/01/30 08:55:45;;;;;;;21.50;12.63;;;8.40;99.90;;;;;;5044097;28;20041;-84
2024/01/30 08:58:11;;;;;;;22.83;12.32;;;8.40;99.90;;;;;;5077007;28;20056;-84
2024/01/30 09:00:37;;;;;;;29.52;12.02;;;8.40;99.90;;;;;;5076407;28;20072;-87
2024/01/30 09:03:03;;;;;;;26.33;13.45;;;8.40;99.90;;;;;;5076590;28;20093;-92
2024/01/30 09:05:29;;;;;;;21.88;12.70;;;8.50;99.90;;;;;;5077346;28;20054;-84
2024/01/30 09:07:55;;;;;;;23.73;13.30;;;8.50;99.90;;;;;;5076649;28;20048;-90
2024/01/30 09:10:21;;;;;;;19.45;11.98;;;8.60;99.90;;;;;;5061288;28;20052;-84
2024/01/30 09:12:47;;;;;;;24.90;12.55;;;8.60;99.90;;;;;;5039012;28;20067;-92
2024/01/30 09:15:13;;;;;;;23.50;12.65;;;8.70;99.90;;;;;;5074437;28;20075;-94
2024/01/30 09:17:39;;;;;;;23.80;11.50;;;8.70;99.90;;;;;;5055801;28;20504;-92
2024/01/30 09:20:06;;;;;;;27.58;13.35;;;8.80;99.90;;;;;;5074202;28;20136;-91
2024/01/30 09:22:31;;;;;;;20.95;12.18;;;8.80;99.90;;;;;;5074102;28;20052;-88
2024/01/30 09:24:57;;;;;;;22.58;12.00;;;8.80;99.90;;;;;;5073553;28;20213;-87
2024/01/30 09:27:23;;;;;;;24.73;12.30;;;8.80;99.90;;;;;;5074706;28;20049;-81
2024/01/30 09:29:51;;;;;;;23.42;12.98;;;8.80;99.90;;;;;;5073791;28;20048;-94
2024/01/30 09:32:17;;;;;;;22.05;11.95;;;8.80;99.90;;;;;;5073860;28;20050;-87
2024/01/30 09:34:43;;;;;;;28.42;12.70;;;8.80;99.90;;;;;;5056303;28;20135;-93
2024/01/30 09:37:09;;;;;;;22.13;11.38;;;8.80;99.90;;;;;;5057329;28;20086;-91
2024/01/30 09:39:34;;;;;;;26.65;12.57;;;8.80;99.90;;;;;;5081553;28;20051;-92
2024/01/30 09:42:24;;;;;;;22.58;13.05;;;8.80;99.90;;;;;;5080203;28;20094;-93
2024/01/30 09:44:52;;;;;;;23.70;12.60;;;8.80;99.90;;;;;;5073511;28;20045;-88
2024/01/30 09:47:18;;;;;;;23.80;12.32;;;8.80;99.90;;;;;;5055159;28;20049;-87
2024/01/30 09:49:45;;;;;;;23.70;12.73;;;8.90;99.90;;;;;;5072616;28;20055;-94
2024/01/30 09:52:11;;;;;;;24.65;12.98;;;8.90;99.90;;;;;;5072742;28;20051;-92
2024/01/30 09:54:38;;;;;;;23.50;11.98;;;8.90;99.90;;;;;;5072438;28;20075;-94
2024/01/30 09:57:04;;;;;;;22.92;12.60;;;9.00;99.90;;;;;;5072940;28;20128;-93
2024/01/30 09:59:34;;;;;;;23.70;12.48;;;9.00;99.90;;;;;;5071917;28;20048;-94
2024/01/30 10:02:00;;;;;;;27.42;12.82;;;9.00;99.90;;;;;;5073623;28;20399;-94
2024/01/30 10:04:26;;;;;;;21.33;12.05;;;9.10;99.90;;;;;;5072906;28;20509;-93
2024/01/30 10:06:52;;;;;;;19.33;12.02;;;9.10;99.90;;;;;;5073510;28;20112;-95
2024/01/30 10:09:17;;;;;;;23.90;12.30;;;9.10;99.90;;;;;;5073153;28;20048;-93
2024/01/30 10:11:43;;;;;;;18.48;11.30;;;9.10;99.90;;;;;;5072959;28;20079;-95
2024/01/30 10:14:09;;;;;;;30.67;12.73;;;9.10;99.90;;;;;;5073434;28;20135;-95
2024/01/30 10:16:35;;;;;;;27.23;13.82;;;9.10;99.90;;;;;;5081351;28;20051;-83
2024/01/30 10:19:02;;;;;;;23.08;11.63;;;9.20;99.90;;;;;;5082635;28;20048;-91
2024/01/30 10:21:29;;;;;;;31.33;14.23;;;9.20;99.90;;;;;;5079042;28;20052;-90
2024/01/30 10:23:55;;;;;;;21.27;12.25;;;9.20;99.90;;;;;;5076684;28;20087;-90
2024/01/30 10:26:22;;;;;;;26.55;12.32;;;9.20;99.90;;;;;;5074875;28;20044;-90
2024/01/30 10:28:49;;;;;;;22.33;10.30;;;9.30;99.90;;;;;;5074111;28;20049;-78
2024/01/30 10:31:18;;;;;;;18.45;9.70;;;9.40;99.90;;;;;;5074063;28;20108;-78
2024/01/30 10:33:45;;;;;;;18.63;9.52;;;9.50;99.90;;;;;;5072588;28;20060;-94
2024/01/30 10:36:15;;;;;;;21.65;9.73;;;9.50;99.90;;;;;;5054064;28;20101;-90
2024/01/30 10:38:42;;;;;;;18.90;9.15;;;9.50;99.90;;;;;;5053603;28;20057;-82
2024/01/30 10:41:13;;;;;;;16.48;9.65;;;9.60;99.90;;;;;;5053679;28;20408;-83
2024/01/30 10:43:42;;;;;;;18.42;9.40;;;9.60;99.90;;;;;;5071694;28;20045;-94
2024/01/30 10:46:15;;;;;;;18.75;8.18;;;9.50;99.90;;;;;;5053949;28;20045;-87
2024/01/30 10:48:44;;;;;;;20.27;9.88;;;9.50;99.90;;;;;;5056786;28;20063;-84
2024/01/30 10:51:12;;;;;;;20.52;8.57;;;9.50;99.90;;;;;;5071671;28;20048;-89
2024/01/30 10:53:39;;;;;;;24.42;9.95;;;9.50;99.90;;;;;;5071822;28;20052;-86
2024/01/30 10:56:05;;;;;;;21.98;9.13;;;9.50;99.90;;;;;;5053915;28;20084;-79
2024/01/30 10:58:31;;;;;;;18.60;7.75;;;9.40;99.90;;;;;;5053263;28;20076;-90
2024/01/30 11:00:57;;;;;;;14.90;7.38;;;9.40;99.90;;;;;;5036717;28;20053;-77
2024/01/30 11:03:24;;;;;;;14.68;7.50;;;9.30;99.90;;;;;;5053092;28;20111;-86
2024/01/30 11:05:52;;;;;;;19.15;6.93;;;9.30;99.90;;;;;;5071318;28;20107;-80
2024/01/30 11:08:25;;;;;;;15.98;6.47;;;9.30;99.90;;;;;;5071037;28;20106;-85
2024/01/30 11:10:58;;;;;;;21.33;6.80;;;9.20;99.90;;;;;;5054631;28;20056;-89
2024/01/30 11:13:29;;;;;;;15.82;5.80;;;9.20;99.90;;;;;;5057100;28;20059;-82
2024/01/30 11:15:55;;;;;;;20.63;6.03;;;9.10;99.90;;;;;;5074896;28;20097;-82
2024/01/30 11:18:29;;;;;;;15.60;4.80;;;9.10;99.90;;;;;;5075040;28;20048;-90
2024/01/30 11:21:01;;;;;;;16.00;4.50;;;9.10;99.90;;;;;;5074961;28;20045;-80
2024/01/30 11:23:28;;;;;;;13.73;5.00;;;9.10;99.90;;;;;;5057412;28;20518;-93
2024/01/30 11:25:54;;;;;;;9.65;4.20;;;9.10;99.90;;;;;;5043954;28;20062;-88
2024/01/30 11:28:22;;;;;;;16.75;5.32;;;9.10;99.90;;;;;;5074490;28;20052;-80
2024/01/30 11:30:50;;;;;;;14.15;4.10;;;9.10;99.90;;;;;;5074444;28;20044;-81
2024/01/30 11:33:30;;;;;;;12.55;4.35;;;9.00;99.90;;;;;;5056213;28;20052;-81
2024/01/30 11:35:59;;;;;;;16.88;3.97;;;9.00;99.90;;;;;;5074463;28;20052;-79
2024/01/30 11:38:27;;;;;;;16.75;4.70;;;9.00;99.90;;;;;;5074374;28;20059;-85
2024/01/30 11:40:55;;;;;;;9.18;2.63;;;9.00;99.90;;;;;;5074651;28;20400;-78
2024/01/30 11:43:21;;;;;;;7.13;2.08;;;9.00;99.90;;;;;;5074623;28;20048;-79
2024/01/30 11:45:47;;;;;;;10.77;2.15;;;9.00;99.90;;;;;;5074847;28;20393;-86
2024/01/30 11:48:13;;;;;;;9.85;2.08;;;8.90;99.90;;;;;;5057008;28;20056;-90
2024/01/30 11:50:40;;;;;;;10.70;2.30;;;8.90;99.90;;;;;;5075103;28;20048;-88
2024/01/30 11:53:06;;;;;;;11.73;2.40;;;9.00;99.90;;;;;;5079799;28;20085;-87
2024/01/30 11:55:33;;;;;;;11.30;2.20;;;8.90;99.90;;;;;;5075862;28;20049;-82
2024/01/30 11:57:58;;;;;;;10.00;1.90;;;8.90;99.90;;;;;;5074466;28;20595;-80
2024/01/30 12:00:25;;;;;;;8.35;1.80;;;8.90;99.90;;;;;;5056801;28;20163;-79
2024/01/30 12:02:55;;;;;;;10.98;2.25;;;8.90;99.90;;;;;;5074787;28;20084;-91
2024/01/30 12:05:22;;;;;;;6.30;2.28;;;8.90;99.90;;;;;;5056132;28;20501;-81
2024/01/30 12:07:48;;;;;;;5.22;1.67;;;8.90;99.90;;;;;;5078681;28;20089;-81
2024/01/30 12:10:14;;;;;;;6.35;1.50;;;8.80;99.90;;;;;;5080134;28;20053;-77
2024/01/30 12:12:42;;;;;;;7.03;2.42;;;8.90;99.90;;;;;;5080939;28;20102;-78
2024/01/30 12:15:08;;;;;;;7.32;1.80;;;8.90;99.90;;;;;;5083953;28;20052;-79
2024/01/30 12:17:34;;;;;;;5.68;1.63;;;8.80;99.90;;;;;;5069271;28;20039;-88
2024/01/30 12:20:14;;;;;;;6.28;1.30;;;8.80;99.90;;;;;;5088443;28;20044;-76
2024/01/30 12:22:44;;;;;;;6.70;2.25;;;8.80;99.90;;;;;;5089585;28;20052;-79
2024/01/30 12:25:18;;;;;;;7.63;1.80;;;8.80;99.90;;;;;;5082296;28;20066;-89
2024/01/30 12:27:46;;;;;;;6.97;2.73;;;8.90;99.90;;;;;;5059295;28;20072;-87
2024/01/30 12:30:13;;;;;;;9.88;2.08;;;9.00;99.90;;;;;;5076888;28;20283;-79
2024/01/30 12:32:42;;;;;;;11.38;2.20;;;9.00;99.90;;;;;;5075243;28;20037;-80
2024/01/30 12:35:11;;;;;;;5.65;1.95;;;9.00;99.90;;;;;;5075460;28;20056;-80